Main page
METAR-TAF:

METAR-TAF

Airports :

Schwäbisch Hall, Germany

latitude: 49-07-06N, longitude: 9-47-02E, elevation: 398 m

Current weather observation

The report was made 13 minutes ago, at 06:50 UTC
Wind 1 kt from variable directions
Temperature 2°C
Humidity 100%
Pressure 1010 hPa
Visibility: 5000 m
Overcast at a height of 1100 ft
mist

METAR: EDTY 210650Z VRB01KT 5000 BR OVC011 02/02 Q1010

Time: 08:03 (07:03 UTC)

Forecast

The report was made 2 hours and 3 minutes ago, at 05:00 UTC
Forecast valid from 21 at 06 UTC to 21 at 15 UTC
Wind 3 kt from variable directions
Visibility: 6000 m
Overcast at a height of 1500 ft
Temporary
from 21 at 06 UTC to 21 at 11 UTC
Visibility: 4000 m
Overcast at a height of 800 ft
mist

TAF: EDTY 210500Z 2106/2115 VRB03KT 6000 OVC015 TEMPO 2106/2111 4000 BR OVC008

Weather observations and forecasts of more than 4000 airports (METAR and TAF reports).

The available stations are represented by yellow and red dots on the map.

Hover mouse over dot to see the name of the station.

Then click to see weather observations and forecasts.

To change the map : click on the green buttons with a black cross to zoom in, on the green button with a dash to zoom out, or on the green arrows for adjacent maps.


METAR-TAF: